sensor_id;sensor_type;location;lat;lon;timestamp;pressure;altitude;pressure_sealevel;temperature
65600;BMP280;52272;-29.642;-50.764;2022-08-11T00:02:01;101743.44;;;19.99
65600;BMP280;52272;-29.642;-50.764;2022-08-11T00:04:35;101748.78;;;19.79
65600;BMP280;52272;-29.642;-50.764;2022-08-11T00:07:06;101754.97;;;19.51
65600;BMP280;52272;-29.642;-50.764;2022-08-11T00:09:38;101740.00;;;19.50
65600;BMP280;52272;-29.642;-50.764;2022-08-11T00:12:15;101740.88;;;19.76
65600;BMP280;52272;-29.642;-50.764;2022-08-11T00:14:46;101743.22;;;19.83
65600;BMP280;52272;-29.642;-50.764;2022-08-11T00:17:30;101740.91;;;19.47
65600;BMP280;52272;-29.642;-50.764;2022-08-11T00:20:10;101741.00;;;19.67
65600;BMP280;52272;-29.642;-50.764;2022-08-11T00:22:45;101743.84;;;19.92
65600;BMP280;52272;-29.642;-50.764;2022-08-11T00:25:18;101742.34;;;19.91
65600;BMP280;52272;-29.642;-50.764;2022-08-11T00:27:49;101735.00;;;20.12
65600;BMP280;52272;-29.642;-50.764;2022-08-11T00:30:19;101734.06;;;20.14
65600;BMP280;52272;-29.642;-50.764;2022-08-11T00:32:55;101738.16;;;20.10
65600;BMP280;52272;-29.642;-50.764;2022-08-11T00:35:29;101750.53;;;19.97
65600;BMP280;52272;-29.642;-50.764;2022-08-11T00:38:24;101747.16;;;20.02
65600;BMP280;52272;-29.642;-50.764;2022-08-11T01:02:48;101748.22;;;19.41
65600;BMP280;52272;-29.642;-50.764;2022-08-11T01:17:47;101760.31;;;19.94
65600;BMP280;52272;-29.642;-50.764;2022-08-11T01:21:27;101776.69;;;20.19
65600;BMP280;52272;-29.642;-50.764;2022-08-11T01:24:08;101767.25;;;20.29
65600;BMP280;52272;-29.642;-50.764;2022-08-11T01:26:58;101775.06;;;20.27
65600;BMP280;52272;-29.642;-50.764;2022-08-11T01:39:16;101784.47;;;18.49
65600;BMP280;52272;-29.642;-50.764;2022-08-11T01:42:12;101784.69;;;18.69
65600;BMP280;52272;-29.642;-50.764;2022-08-11T01:45:56;101783.97;;;19.36
65600;BMP280;52272;-29.642;-50.764;2022-08-11T01:51:26;101776.03;;;19.47
65600;BMP280;52272;-29.642;-50.764;2022-08-11T01:57:33;101784.34;;;19.58
65600;BMP280;52272;-29.642;-50.764;2022-08-11T02:00:16;101777.53;;;19.33
65600;BMP280;52272;-29.642;-50.764;2022-08-11T02:05:43;101770.94;;;16.80
65600;BMP280;52272;-29.642;-50.764;2022-08-11T02:11:25;101766.63;;;17.01
65600;BMP280;52272;-29.642;-50.764;2022-08-11T02:14:21;101773.66;;;17.34
65600;BMP280;52272;-29.642;-50.764;2022-08-11T02:17:22;101775.09;;;17.62
65600;BMP280;52272;-29.642;-50.764;2022-08-11T02:20:18;101780.28;;;18.25
65600;BMP280;52272;-29.642;-50.764;2022-08-11T02:23:22;101780.34;;;18.16
65600;BMP280;52272;-29.642;-50.764;2022-08-11T02:26:34;101774.25;;;18.07
65600;BMP280;52272;-29.642;-50.764;2022-08-11T02:32:23;101775.75;;;18.31
65600;BMP280;52272;-29.642;-50.764;2022-08-11T02:35:31;101770.38;;;18.54
65600;BMP280;52272;-29.642;-50.764;2022-08-11T02:54:38;101784.06;;;18.89
65600;BMP280;52272;-29.642;-50.764;2022-08-11T02:57:28;101776.00;;;18.65
65600;BMP280;52272;-29.642;-50.764;2022-08-11T03:00:14;101785.16;;;18.59
65600;BMP280;52272;-29.642;-50.764;2022-08-11T03:08:40;101782.47;;;18.12
65600;BMP280;52272;-29.642;-50.764;2022-08-11T03:15:00;101783.00;;;18.95
65600;BMP280;52272;-29.642;-50.764;2022-08-11T03:18:00;101792.06;;;19.21
65600;BMP280;52272;-29.642;-50.764;2022-08-11T03:21:31;101790.88;;;19.37
65600;BMP280;52272;-29.642;-50.764;2022-08-11T03:29:39;101784.69;;;19.51
65600;BMP280;52272;-29.642;-50.764;2022-08-11T03:32:28;101780.53;;;19.35
65600;BMP280;52272;-29.642;-50.764;2022-08-11T03:35:02;101777.56;;;19.62
65600;BMP280;52272;-29.642;-50.764;2022-08-11T03:38:11;101783.59;;;19.43
65600;BMP280;52272;-29.642;-50.764;2022-08-11T03:40:58;101778.88;;;19.67
65600;BMP280;52272;-29.642;-50.764;2022-08-11T03:50:26;101757.94;;;19.82
65600;BMP280;52272;-29.642;-50.764;2022-08-11T03:55:54;101760.47;;;20.05
65600;BMP280;52272;-29.642;-50.764;2022-08-11T04:16:48;101752.97;;;19.95
65600;BMP280;52272;-29.642;-50.764;2022-08-11T04:31:59;101756.13;;;19.93
65600;BMP280;52272;-29.642;-50.764;2022-08-11T04:50:14;101765.22;;;19.18
65600;BMP280;52272;-29.642;-50.764;2022-08-11T04:53:44;101768.09;;;19.29
65600;BMP280;52272;-29.642;-50.764;2022-08-11T04:56:36;101764.97;;;19.45
65600;BMP280;52272;-29.642;-50.764;2022-08-11T05:06:24;101747.88;;;20.16
65600;BMP280;52272;-29.642;-50.764;2022-08-11T05:09:27;101745.84;;;20.12
65600;BMP280;52272;-29.642;-50.764;2022-08-11T05:14:55;101738.31;;;20.41
65600;BMP280;52272;-29.642;-50.764;2022-08-11T05:18:09;101741.63;;;20.50
65600;BMP280;52272;-29.642;-50.764;2022-08-11T05:21:06;101718.19;;;20.47
65600;BMP280;52272;-29.642;-50.764;2022-08-11T05:24:08;101728.56;;;20.69
65600;BMP280;52272;-29.642;-50.764;2022-08-11T05:27:02;101731.56;;;20.76
65600;BMP280;52272;-29.642;-50.764;2022-08-11T05:30:11;101721.63;;;20.68
65600;BMP280;52272;-29.642;-50.764;2022-08-11T05:33:08;101722.88;;;20.47
65600;BMP280;52272;-29.642;-50.764;2022-08-11T05:38:55;101708.03;;;20.82
65600;BMP280;52272;-29.642;-50.764;2022-08-11T05:41:44;101705.53;;;20.84
65600;BMP280;52272;-29.642;-50.764;2022-08-11T05:44:34;101704.44;;;20.45
65600;BMP280;52272;-29.642;-50.764;2022-08-11T05:47:26;101702.84;;;20.84
65600;BMP280;52272;-29.642;-50.764;2022-08-11T05:50:16;101705.25;;;21.02
65600;BMP280;52272;-29.642;-50.764;2022-08-11T05:53:11;101712.41;;;21.05
65600;BMP280;52272;-29.642;-50.764;2022-08-11T05:56:13;101714.41;;;21.10
65600;BMP280;52272;-29.642;-50.764;2022-08-11T05:59:01;101714.34;;;21.30
65600;BMP280;52272;-29.642;-50.764;2022-08-11T06:01:32;101708.94;;;21.30
65600;BMP280;52272;-29.642;-50.764;2022-08-11T06:04:05;101716.84;;;21.39
65600;BMP280;52272;-29.642;-50.764;2022-08-11T06:07:03;101715.72;;;20.89
65600;BMP280;52272;-29.642;-50.764;2022-08-11T06:12:28;101716.16;;;20.82
65600;BMP280;52272;-29.642;-50.764;2022-08-11T06:15:05;101720.41;;;19.89
65600;BMP280;52272;-29.642;-50.764;2022-08-11T06:17:43;101715.53;;;19.59
65600;BMP280;52272;-29.642;-50.764;2022-08-11T06:20:17;101712.78;;;20.47
65600;BMP280;52272;-29.642;-50.764;2022-08-11T06:22:55;101704.66;;;20.67
65600;BMP280;52272;-29.642;-50.764;2022-08-11T06:25:30;101710.91;;;20.79
65600;BMP280;52272;-29.642;-50.764;2022-08-11T06:28:06;101711.88;;;21.01
65600;BMP280;52272;-29.642;-50.764;2022-08-11T06:30:39;101713.00;;;21.20
65600;BMP280;52272;-29.642;-50.764;2022-08-11T06:33:38;101702.19;;;20.44
65600;BMP280;52272;-29.642;-50.764;2022-08-11T06:41:48;101694.47;;;20.62
65600;BMP280;52272;-29.642;-50.764;2022-08-11T06:44:28;101690.06;;;20.00
65600;BMP280;52272;-29.642;-50.764;2022-08-11T06:47:09;101691.38;;;20.04
65600;BMP280;52272;-29.642;-50.764;2022-08-11T06:49:43;101708.69;;;20.77
65600;BMP280;52272;-29.642;-50.764;2022-08-11T06:52:36;101700.28;;;20.75
65600;BMP280;52272;-29.642;-50.764;2022-08-11T06:55:14;101697.50;;;20.95
65600;BMP280;52272;-29.642;-50.764;2022-08-11T06:58:32;101689.47;;;20.50
65600;BMP280;52272;-29.642;-50.764;2022-08-11T07:01:32;101699.53;;;20.49
65600;BMP280;52272;-29.642;-50.764;2022-08-11T07:04:08;101704.25;;;20.74
65600;BMP280;52272;-29.642;-50.764;2022-08-11T07:06:55;101693.16;;;20.98
65600;BMP280;52272;-29.642;-50.764;2022-08-11T07:13:27;101689.38;;;20.95
65600;BMP280;52272;-29.642;-50.764;2022-08-11T07:16:24;101694.81;;;20.95
65600;BMP280;52272;-29.642;-50.764;2022-08-11T07:19:06;101687.56;;;20.81
65600;BMP280;52272;-29.642;-50.764;2022-08-11T07:21:56;101690.38;;;20.92
65600;BMP280;52272;-29.642;-50.764;2022-08-11T07:25:00;101686.91;;;20.92
65600;BMP280;52272;-29.642;-50.764;2022-08-11T07:28:11;101685.75;;;20.98
65600;BMP280;52272;-29.642;-50.764;2022-08-11T07:31:03;101687.56;;;21.12
65600;BMP280;52272;-29.642;-50.764;2022-08-11T07:33:45;101682.75;;;21.22
65600;BMP280;52272;-29.642;-50.764;2022-08-11T07:36:38;101684.88;;;21.12
65600;BMP280;52272;-29.642;-50.764;2022-08-11T07:39:15;101687.31;;;21.10
65600;BMP280;52272;-29.642;-50.764;2022-08-11T07:41:47;101689.81;;;21.14
65600;BMP280;52272;-29.642;-50.764;2022-08-11T07:44:19;101684.88;;;21.12
65600;BMP280;52272;-29.642;-50.764;2022-08-11T07:46:52;101681.91;;;21.10
65600;BMP280;52272;-29.642;-50.764;2022-08-11T07:49:44;101678.31;;;21.24
65600;BMP280;52272;-29.642;-50.764;2022-08-11T07:52:33;101687.34;;;21.16
65600;BMP280;52272;-29.642;-50.764;2022-08-11T07:55:15;101681.53;;;21.28
65600;BMP280;52272;-29.642;-50.764;2022-08-11T07:57:47;101678.78;;;20.92
65600;BMP280;52272;-29.642;-50.764;2022-08-11T08:00:50;101686.34;;;21.13
65600;BMP280;52272;-29.642;-50.764;2022-08-11T08:03:50;101691.38;;;20.95
65600;BMP280;52272;-29.642;-50.764;2022-08-11T08:06:39;101692.22;;;21.06
65600;BMP280;52272;-29.642;-50.764;2022-08-11T08:09:27;101702.78;;;21.04
65600;BMP280;52272;-29.642;-50.764;2022-08-11T08:12:23;101711.53;;;21.19
65600;BMP280;52272;-29.642;-50.764;2022-08-11T08:15:13;101707.16;;;21.27
65600;BMP280;52272;-29.642;-50.764;2022-08-11T08:18:03;101706.28;;;21.10
65600;BMP280;52272;-29.642;-50.764;2022-08-11T08:20:54;101705.44;;;20.99
65600;BMP280;52272;-29.642;-50.764;2022-08-11T08:23:50;101704.19;;;21.25
65600;BMP280;52272;-29.642;-50.764;2022-08-11T08:26:23;101709.53;;;21.14
65600;BMP280;52272;-29.642;-50.764;2022-08-11T08:29:19;101715.47;;;21.18
65600;BMP280;52272;-29.642;-50.764;2022-08-11T08:32:09;101719.41;;;21.17
65600;BMP280;52272;-29.642;-50.764;2022-08-11T08:34:42;101726.56;;;21.20
65600;BMP280;52272;-29.642;-50.764;2022-08-11T08:37:13;101725.56;;;21.18
65600;BMP280;52272;-29.642;-50.764;2022-08-11T08:40:07;101726.31;;;21.18
65600;BMP280;52272;-29.642;-50.764;2022-08-11T08:42:49;101723.91;;;21.26
65600;BMP280;52272;-29.642;-50.764;2022-08-11T08:45:24;101729.38;;;21.31
65600;BMP280;52272;-29.642;-50.764;2022-08-11T08:48:02;101732.38;;;21.33
65600;BMP280;52272;-29.642;-50.764;2022-08-11T08:50:35;101727.00;;;21.44
65600;BMP280;52272;-29.642;-50.764;2022-08-11T08:53:26;101732.72;;;21.52
65600;BMP280;52272;-29.642;-50.764;2022-08-11T08:56:02;101739.66;;;21.58
65600;BMP280;52272;-29.642;-50.764;2022-08-11T08:58:36;101741.56;;;21.47
65600;BMP280;52272;-29.642;-50.764;2022-08-11T09:01:09;101748.94;;;20.64
65600;BMP280;52272;-29.642;-50.764;2022-08-11T09:03:40;101750.84;;;20.18
65600;BMP280;52272;-29.642;-50.764;2022-08-11T09:06:31;101759.00;;;18.74
65600;BMP280;52272;-29.642;-50.764;2022-08-11T09:09:02;101753.72;;;19.81
65600;BMP280;52272;-29.642;-50.764;2022-08-11T09:11:34;101746.34;;;20.50
65600;BMP280;52272;-29.642;-50.764;2022-08-11T09:14:26;101744.34;;;20.30
65600;BMP280;52272;-29.642;-50.764;2022-08-11T09:17:21;101748.06;;;20.33
65600;BMP280;52272;-29.642;-50.764;2022-08-11T09:19:55;101747.47;;;20.23
65600;BMP280;52272;-29.642;-50.764;2022-08-11T09:22:34;101756.38;;;19.61
65600;BMP280;52272;-29.642;-50.764;2022-08-11T09:25:43;101753.03;;;19.08
65600;BMP280;52272;-29.642;-50.764;2022-08-11T09:28:33;101755.16;;;19.33
65600;BMP280;52272;-29.642;-50.764;2022-08-11T09:31:05;101757.69;;;19.51
65600;BMP280;52272;-29.642;-50.764;2022-08-11T09:33:36;101747.41;;;19.11
65600;BMP280;52272;-29.642;-50.764;2022-08-11T09:36:11;101775.66;;;18.72
65600;BMP280;52272;-29.642;-50.764;2022-08-11T09:39:02;101782.06;;;19.13
65600;BMP280;52272;-29.642;-50.764;2022-08-11T09:41:53;101793.81;;;19.10
65600;BMP280;52272;-29.642;-50.764;2022-08-11T09:44:34;101787.88;;;19.35
65600;BMP280;52272;-29.642;-50.764;2022-08-11T09:47:25;101800.91;;;19.51
65600;BMP280;52272;-29.642;-50.764;2022-08-11T09:49:59;101797.28;;;19.68
65600;BMP280;52272;-29.642;-50.764;2022-08-11T09:52:35;101798.13;;;19.74
65600;BMP280;52272;-29.642;-50.764;2022-08-11T09:55:20;101787.53;;;19.71
65600;BMP280;52272;-29.642;-50.764;2022-08-11T09:57:51;101793.84;;;19.68
65600;BMP280;52272;-29.642;-50.764;2022-08-11T10:01:07;101796.84;;;19.55
65600;BMP280;52272;-29.642;-50.764;2022-08-11T10:06:52;101803.38;;;19.49
65600;BMP280;52272;-29.642;-50.764;2022-08-11T10:14:57;101828.31;;;19.44
65600;BMP280;52272;-29.642;-50.764;2022-08-11T10:17:52;101836.38;;;19.53
65600;BMP280;52272;-29.642;-50.764;2022-08-11T10:20:44;101837.31;;;19.50
65600;BMP280;52272;-29.642;-50.764;2022-08-11T10:23:21;101851.00;;;19.61
65600;BMP280;52272;-29.642;-50.764;2022-08-11T10:26:31;101846.78;;;20.03
65600;BMP280;52272;-29.642;-50.764;2022-08-11T10:29:28;101854.31;;;20.13
65600;BMP280;52272;-29.642;-50.764;2022-08-11T10:32:21;101856.88;;;20.37
65600;BMP280;52272;-29.642;-50.764;2022-08-11T10:35:29;101855.69;;;20.23
65600;BMP280;52272;-29.642;-50.764;2022-08-11T10:38:00;101857.09;;;20.53
65600;BMP280;52272;-29.642;-50.764;2022-08-11T10:40:39;101859.81;;;20.73
65600;BMP280;52272;-29.642;-50.764;2022-08-11T10:43:13;101856.41;;;20.58
65600;BMP280;52272;-29.642;-50.764;2022-08-11T10:46:09;101862.03;;;20.95
65600;BMP280;52272;-29.642;-50.764;2022-08-11T10:48:59;101867.66;;;21.11
65600;BMP280;52272;-29.642;-50.764;2022-08-11T10:51:31;101874.09;;;21.39
65600;BMP280;52272;-29.642;-50.764;2022-08-11T10:54:22;101871.34;;;21.59
65600;BMP280;52272;-29.642;-50.764;2022-08-11T10:57:11;101881.81;;;21.77
65600;BMP280;52272;-29.642;-50.764;2022-08-11T11:00:04;101889.53;;;21.84
65600;BMP280;52272;-29.642;-50.764;2022-08-11T11:02:35;101892.69;;;22.08
65600;BMP280;52272;-29.642;-50.764;2022-08-11T11:05:24;101880.78;;;22.00
65600;BMP280;52272;-29.642;-50.764;2022-08-11T11:08:10;101903.81;;;22.15
65600;BMP280;52272;-29.642;-50.764;2022-08-11T11:11:01;101893.47;;;22.19
65600;BMP280;52272;-29.642;-50.764;2022-08-11T11:13:35;101910.53;;;21.83
65600;BMP280;52272;-29.642;-50.764;2022-08-11T11:16:25;101916.03;;;21.18
65600;BMP280;52272;-29.642;-50.764;2022-08-11T11:19:17;101916.91;;;21.55
65600;BMP280;52272;-29.642;-50.764;2022-08-11T11:21:53;101919.41;;;21.89
65600;BMP280;52272;-29.642;-50.764;2022-08-11T11:25:07;101909.09;;;22.30
65600;BMP280;52272;-29.642;-50.764;2022-08-11T11:27:58;101912.59;;;22.36
65600;BMP280;52272;-29.642;-50.764;2022-08-11T11:34:22;101929.63;;;22.83
65600;BMP280;52272;-29.642;-50.764;2022-08-11T11:37:00;101930.97;;;23.15
65600;BMP280;52272;-29.642;-50.764;2022-08-11T11:39:32;101930.78;;;23.35
65600;BMP280;52272;-29.642;-50.764;2022-08-11T11:42:05;101944.63;;;23.43
65600;BMP280;52272;-29.642;-50.764;2022-08-11T11:44:37;101944.19;;;23.66
65600;BMP280;52272;-29.642;-50.764;2022-08-11T11:47:11;101942.94;;;23.84
65600;BMP280;52272;-29.642;-50.764;2022-08-11T11:49:42;101942.19;;;24.05
65600;BMP280;52272;-29.642;-50.764;2022-08-11T11:52:15;101948.56;;;24.24
65600;BMP280;52272;-29.642;-50.764;2022-08-11T11:54:50;101944.41;;;23.57
65600;BMP280;52272;-29.642;-50.764;2022-08-11T11:57:23;101946.41;;;23.84
65600;BMP280;52272;-29.642;-50.764;2022-08-11T12:00:30;101943.16;;;23.47
65600;BMP280;52272;-29.642;-50.764;2022-08-11T12:03:19;101940.97;;;23.57
65600;BMP280;52272;-29.642;-50.764;2022-08-11T12:05:51;101949.16;;;23.84
65600;BMP280;52272;-29.642;-50.764;2022-08-11T12:08:25;101945.16;;;23.96
65600;BMP280;52272;-29.642;-50.764;2022-08-11T12:11:00;101943.16;;;24.02
65600;BMP280;52272;-29.642;-50.764;2022-08-11T12:13:52;101947.53;;;24.49
65600;BMP280;52272;-29.642;-50.764;2022-08-11T12:16:23;101953.72;;;24.60
65600;BMP280;52272;-29.642;-50.764;2022-08-11T12:19:07;101960.47;;;25.00
65600;BMP280;52272;-29.642;-50.764;2022-08-11T12:21:41;101956.59;;;25.24
65600;BMP280;52272;-29.642;-50.764;2022-08-11T12:24:31;101957.78;;;25.64
65600;BMP280;52272;-29.642;-50.764;2022-08-11T12:27:21;101961.22;;;25.64
65600;BMP280;52272;-29.642;-50.764;2022-08-11T12:29:56;101960.75;;;25.66
65600;BMP280;52272;-29.642;-50.764;2022-08-11T12:32:29;101962.91;;;25.43
65600;BMP280;52272;-29.642;-50.764;2022-08-11T12:35:01;101967.72;;;25.91
65600;BMP280;52272;-29.642;-50.764;2022-08-11T12:37:44;101968.31;;;25.78
65600;BMP280;52272;-29.642;-50.764;2022-08-11T12:40:23;101958.81;;;26.14
65600;BMP280;52272;-29.642;-50.764;2022-08-11T12:43:33;101960.47;;;26.41
65600;BMP280;52272;-29.642;-50.764;2022-08-11T12:46:38;101971.75;;;26.56
65600;BMP280;52272;-29.642;-50.764;2022-08-11T12:49:19;101972.19;;;26.97
65600;BMP280;52272;-29.642;-50.764;2022-08-11T12:52:18;101965.38;;;26.24
65600;BMP280;52272;-29.642;-50.764;2022-08-11T12:54:55;101969.78;;;27.25
65600;BMP280;52272;-29.642;-50.764;2022-08-11T12:57:46;101964.25;;;27.87
65600;BMP280;52272;-29.642;-50.764;2022-08-11T13:00:35;101967.00;;;27.12
65600;BMP280;52272;-29.642;-50.764;2022-08-11T13:03:25;101972.88;;;27.91
65600;BMP280;52272;-29.642;-50.764;2022-08-11T13:06:24;101981.72;;;28.23
65600;BMP280;52272;-29.642;-50.764;2022-08-11T13:08:57;101988.16;;;28.85
65600;BMP280;52272;-29.642;-50.764;2022-08-11T13:11:29;101983.34;;;28.98
65600;BMP280;52272;-29.642;-50.764;2022-08-11T13:14:26;101981.84;;;28.77
65600;BMP280;52272;-29.642;-50.764;2022-08-11T13:16:59;101987.25;;;29.43
65600;BMP280;52272;-29.642;-50.764;2022-08-11T13:20:12;101989.56;;;30.81
65600;BMP280;52272;-29.642;-50.764;2022-08-11T13:22:45;101979.59;;;31.82
65600;BMP280;52272;-29.642;-50.764;2022-08-11T13:25:22;101983.78;;;33.10
65600;BMP280;52272;-29.642;-50.764;2022-08-11T13:27:55;101992.75;;;34.03
65600;BMP280;52272;-29.642;-50.764;2022-08-11T13:30:30;101994.41;;;34.15
65600;BMP280;52272;-29.642;-50.764;2022-08-11T13:33:19;101988.88;;;33.89
65600;BMP280;52272;-29.642;-50.764;2022-08-11T13:35:52;101981.41;;;32.34
65600;BMP280;52272;-29.642;-50.764;2022-08-11T13:38:24;101983.81;;;32.30
65600;BMP280;52272;-29.642;-50.764;2022-08-11T13:40:55;101979.28;;;31.63
65600;BMP280;52272;-29.642;-50.764;2022-08-11T13:43:26;101967.75;;;30.97
65600;BMP280;52272;-29.642;-50.764;2022-08-11T13:45:57;101972.28;;;30.58
65600;BMP280;52272;-29.642;-50.764;2022-08-11T13:48:47;101980.53;;;30.58
65600;BMP280;52272;-29.642;-50.764;2022-08-11T13:51:29;101973.09;;;30.23
65600;BMP280;52272;-29.642;-50.764;2022-08-11T13:54:07;101968.84;;;30.87
65600;BMP280;52272;-29.642;-50.764;2022-08-11T13:56:38;101962.94;;;30.83
65600;BMP280;52272;-29.642;-50.764;2022-08-11T13:59:12;101981.78;;;30.07
65600;BMP280;52272;-29.642;-50.764;2022-08-11T14:01:49;101984.38;;;29.56
65600;BMP280;52272;-29.642;-50.764;2022-08-11T14:04:47;101979.19;;;29.05
65600;BMP280;52272;-29.642;-50.764;2022-08-11T14:07:20;101972.81;;;28.56
65600;BMP280;52272;-29.642;-50.764;2022-08-11T14:09:58;101978.56;;;28.32
65600;BMP280;52272;-29.642;-50.764;2022-08-11T14:12:34;101978.31;;;27.65
65600;BMP280;52272;-29.642;-50.764;2022-08-11T14:15:31;101974.09;;;27.64
65600;BMP280;52272;-29.642;-50.764;2022-08-11T14:20:38;101980.88;;;28.41
65600;BMP280;52272;-29.642;-50.764;2022-08-11T14:23:34;101980.47;;;28.24
65600;BMP280;52272;-29.642;-50.764;2022-08-11T14:26:08;101976.03;;;27.95
65600;BMP280;52272;-29.642;-50.764;2022-08-11T14:31:33;101972.16;;;27.78
65600;BMP280;52272;-29.642;-50.764;2022-08-11T14:34:08;101970.13;;;27.03
65600;BMP280;52272;-29.642;-50.764;2022-08-11T14:36:46;101958.63;;;27.23
65600;BMP280;52272;-29.642;-50.764;2022-08-11T14:39:33;101958.31;;;27.57
65600;BMP280;52272;-29.642;-50.764;2022-08-11T14:42:07;101953.34;;;28.80
65600;BMP280;52272;-29.642;-50.764;2022-08-11T14:45:02;101959.19;;;29.65
65600;BMP280;52272;-29.642;-50.764;2022-08-11T14:47:37;101961.78;;;30.34
65600;BMP280;52272;-29.642;-50.764;2022-08-11T14:50:14;101954.38;;;31.01
65600;BMP280;52272;-29.642;-50.764;2022-08-11T14:52:52;101951.72;;;31.56
65600;BMP280;52272;-29.642;-50.764;2022-08-11T14:55:30;101958.03;;;31.41
65600;BMP280;52272;-29.642;-50.764;2022-08-11T14:58:23;101941.31;;;30.94
65600;BMP280;52272;-29.642;-50.764;2022-08-11T15:00:56;101939.06;;;32.87
65600;BMP280;52272;-29.642;-50.764;2022-08-11T15:03:29;101956.19;;;32.61
65600;BMP280;52272;-29.642;-50.764;2022-08-11T15:06:01;101948.69;;;33.03
65600;BMP280;52272;-29.642;-50.764;2022-08-11T15:08:38;101946.44;;;33.60
65600;BMP280;52272;-29.642;-50.764;2022-08-11T15:11:29;101949.81;;;33.00
65600;BMP280;52272;-29.642;-50.764;2022-08-11T15:14:18;101934.94;;;32.71
65600;BMP280;52272;-29.642;-50.764;2022-08-11T15:17:09;101928.28;;;31.10
65600;BMP280;52272;-29.642;-50.764;2022-08-11T15:19:42;101907.09;;;27.39
65600;BMP280;52272;-29.642;-50.764;2022-08-11T15:22:32;101906.84;;;28.74
65600;BMP280;52272;-29.642;-50.764;2022-08-11T15:25:20;101908.81;;;30.71
65600;BMP280;52272;-29.642;-50.764;2022-08-11T15:27:52;101912.50;;;31.10
65600;BMP280;52272;-29.642;-50.764;2022-08-11T15:30:41;101882.63;;;28.32
65600;BMP280;52272;-29.642;-50.764;2022-08-11T15:33:42;101888.38;;;27.56
65600;BMP280;52272;-29.642;-50.764;2022-08-11T15:36:32;101883.66;;;26.63
65600;BMP280;52272;-29.642;-50.764;2022-08-11T15:39:26;101886.53;;;27.20
65600;BMP280;52272;-29.642;-50.764;2022-08-11T15:42:11;101890.31;;;26.67
65600;BMP280;52272;-29.642;-50.764;2022-08-11T15:45:03;101882.81;;;29.08
65600;BMP280;52272;-29.642;-50.764;2022-08-11T15:48:01;101878.56;;;30.71
65600;BMP280;52272;-29.642;-50.764;2022-08-11T15:50:41;101856.50;;;29.13
65600;BMP280;52272;-29.642;-50.764;2022-08-11T15:53:44;101844.66;;;27.77
65600;BMP280;52272;-29.642;-50.764;2022-08-11T15:56:26;101834.69;;;29.07
65600;BMP280;52272;-29.642;-50.764;2022-08-11T15:59:00;101822.00;;;30.03
65600;BMP280;52272;-29.642;-50.764;2022-08-11T16:02:14;101807.88;;;27.85
65600;BMP280;52272;-29.642;-50.764;2022-08-11T16:04:47;101805.19;;;27.33
65600;BMP280;52272;-29.642;-50.764;2022-08-11T16:07:20;101799.69;;;26.76
65600;BMP280;52272;-29.642;-50.764;2022-08-11T16:10:11;101792.50;;;27.05
65600;BMP280;52272;-29.642;-50.764;2022-08-11T16:12:53;101787.47;;;27.34
65600;BMP280;52272;-29.642;-50.764;2022-08-11T16:15:41;101778.84;;;26.73
65600;BMP280;52272;-29.642;-50.764;2022-08-11T16:18:44;101767.13;;;26.10
65600;BMP280;52272;-29.642;-50.764;2022-08-11T16:24:07;101756.97;;;28.23
65600;BMP280;52272;-29.642;-50.764;2022-08-11T16:27:00;101757.22;;;26.57
65600;BMP280;52272;-29.642;-50.764;2022-08-11T16:29:43;101741.88;;;26.04
65600;BMP280;52272;-29.642;-50.764;2022-08-11T16:32:20;101741.03;;;26.46
65600;BMP280;52272;-29.642;-50.764;2022-08-11T16:35:00;101750.00;;;29.46
65600;BMP280;52272;-29.642;-50.764;2022-08-11T16:37:51;101738.03;;;29.36
65600;BMP280;52272;-29.642;-50.764;2022-08-11T16:40:42;101742.50;;;26.47
65600;BMP280;52272;-29.642;-50.764;2022-08-11T16:43:15;101730.34;;;26.61
65600;BMP280;52272;-29.642;-50.764;2022-08-11T16:46:06;101735.66;;;28.09
65600;BMP280;52272;-29.642;-50.764;2022-08-11T16:48:56;101723.13;;;28.82
65600;BMP280;52272;-29.642;-50.764;2022-08-11T16:51:27;101723.09;;;27.21
65600;BMP280;52272;-29.642;-50.764;2022-08-11T16:53:58;101723.41;;;27.04
65600;BMP280;52272;-29.642;-50.764;2022-08-11T16:56:48;101726.22;;;27.37
65600;BMP280;52272;-29.642;-50.764;2022-08-11T16:59:28;101700.31;;;26.11
65600;BMP280;52272;-29.642;-50.764;2022-08-11T17:02:07;101699.25;;;25.17
65600;BMP280;52272;-29.642;-50.764;2022-08-11T17:04:49;101689.91;;;25.54
65600;BMP280;52272;-29.642;-50.764;2022-08-11T17:07:40;101684.88;;;24.28
65600;BMP280;52272;-29.642;-50.764;2022-08-11T17:10:37;101685.34;;;23.86
65600;BMP280;52272;-29.642;-50.764;2022-08-11T17:13:57;101679.59;;;25.23
65600;BMP280;52272;-29.642;-50.764;2022-08-11T17:16:36;101683.44;;;25.76
65600;BMP280;52272;-29.642;-50.764;2022-08-11T17:19:13;101675.88;;;26.50
65600;BMP280;52272;-29.642;-50.764;2022-08-11T17:21:49;101665.84;;;27.89
65600;BMP280;52272;-29.642;-50.764;2022-08-11T17:24:44;101658.69;;;27.07
65600;BMP280;52272;-29.642;-50.764;2022-08-11T17:27:17;101666.84;;;25.31
65600;BMP280;52272;-29.642;-50.764;2022-08-11T17:30:02;101666.88;;;26.05
65600;BMP280;52272;-29.642;-50.764;2022-08-11T17:32:42;101663.47;;;25.25
65600;BMP280;52272;-29.642;-50.764;2022-08-11T17:35:39;101660.28;;;24.74
65600;BMP280;52272;-29.642;-50.764;2022-08-11T17:38:16;101663.91;;;23.72
65600;BMP280;52272;-29.642;-50.764;2022-08-11T17:40:51;101659.56;;;23.41
65600;BMP280;52272;-29.642;-50.764;2022-08-11T17:43:52;101658.19;;;25.51
65600;BMP280;52272;-29.642;-50.764;2022-08-11T17:46:44;101657.41;;;24.61
65600;BMP280;52272;-29.642;-50.764;2022-08-11T17:49:35;101653.28;;;24.49
65600;BMP280;52272;-29.642;-50.764;2022-08-11T17:52:10;101654.72;;;24.20
65600;BMP280;52272;-29.642;-50.764;2022-08-11T17:55:06;101655.72;;;23.77
65600;BMP280;52272;-29.642;-50.764;2022-08-11T17:58:21;101655.09;;;24.65
65600;BMP280;52272;-29.642;-50.764;2022-08-11T18:01:11;101655.47;;;24.80
65600;BMP280;52272;-29.642;-50.764;2022-08-11T18:03:43;101651.41;;;24.92
65600;BMP280;52272;-29.642;-50.764;2022-08-11T18:06:28;101645.06;;;25.50
65600;BMP280;52272;-29.642;-50.764;2022-08-11T18:09:15;101644.97;;;24.65
65600;BMP280;52272;-29.642;-50.764;2022-08-11T18:12:06;101645.94;;;24.38